Time;durP1;ratioP1;P1;durP2;ratioP2;P2;SDS_P1;SDS_P2;PMS_P1;PMS_P2;Temp;Humidity;BMP_temperature;BMP_pressure;BME280_temperature;BME280_humidity;BME280_pressure;Samples;Min_cycle;Max_cycle;Signal;HPM_P1;HPM_P2
2022/07/16 00:02:30;;;;;;;11.40;6.60;;;;;;;22.17;50.94;92998.34;2071394;69;20163;-71
2022/07/16 00:04:55;;;;;;;9.80;5.65;;;;;;;22.23;49.82;93006.38;2068035;69;20144;-75
2022/07/16 00:07:21;;;;;;;12.13;6.43;;;;;;;22.17;50.82;92994.75;2071407;69;20196;-74
2022/07/16 00:09:47;;;;;;;8.77;5.63;;;;;;;21.93;51.93;93003.50;2071637;69;20148;-71
2022/07/16 00:12:13;;;;;;;10.38;5.93;;;;;;;21.85;52.49;93001.16;2071539;69;20634;-71
2022/07/16 00:14:39;;;;;;;6.38;5.47;;;;;;;21.83;51.75;93001.84;2071592;69;20178;-72
2022/07/16 00:17:04;;;;;;;10.95;5.82;;;;;;;21.75;52.67;93013.13;2071738;69;20152;-70
2022/07/16 00:19:30;;;;;;;11.32;6.10;;;;;;;21.67;53.13;93012.94;2068230;69;20235;-70
2022/07/16 00:21:57;;;;;;;10.07;6.47;;;;;;;21.84;52.09;93008.31;2071545;69;20144;-70
2022/07/16 00:24:24;;;;;;;9.35;6.22;;;;;;;21.87;51.55;93004.09;2068332;69;20203;-70
2022/07/16 00:26:50;;;;;;;10.65;6.55;;;;;;;21.83;52.18;92998.97;2071774;69;20191;-71
2022/07/16 00:29:20;;;;;;;12.20;7.38;;;;;;;21.44;53.65;93003.06;2071656;69;20163;-71
2022/07/16 00:31:47;;;;;;;8.75;6.40;;;;;;;21.63;53.04;93007.09;2071629;69;20152;-71
2022/07/16 00:34:14;;;;;;;11.63;6.43;;;;;;;21.42;53.61;93005.84;2071621;69;20160;-71
2022/07/16 00:36:40;;;;;;;12.15;6.80;;;;;;;21.51;53.54;93001.06;2071391;69;20132;-71
2022/07/16 00:39:08;;;;;;;9.10;6.30;;;;;;;21.68;52.77;93005.06;2071613;69;20152;-72
2022/07/16 00:41:35;;;;;;;12.57;6.65;;;;;;;21.39;53.94;93010.06;2071612;69;20160;-70
2022/07/16 00:44:05;;;;;;;12.00;6.65;;;;;;;21.36;54.00;93013.56;2071680;69;20136;-71
2022/07/16 00:46:31;;;;;;;11.18;6.20;;;;;;;21.17;54.18;93000.91;2071572;69;20163;-71
2022/07/16 00:48:58;;;;;;;10.10;6.28;;;;;;;21.15;54.42;93004.41;2071578;69;20147;-70
2022/07/16 00:51:25;;;;;;;17.27;7.70;;;;;;;20.87;54.90;93003.66;2071349;69;20144;-71
2022/07/16 00:53:51;;;;;;;9.43;7.03;;;;;;;21.08;54.80;93005.69;2068076;69;20144;-71
2022/07/16 00:56:17;;;;;;;12.25;8.27;;;;;;;21.12;54.74;93005.78;2071515;69;20155;-72
2022/07/16 00:58:46;;;;;;;15.77;9.23;;;;;;;21.14;54.99;93005.09;2071547;69;20156;-71
2022/07/16 01:01:12;;;;;;;15.68;8.20;;;;;;;21.07;55.47;93007.06;2071540;69;20149;-71
2022/07/16 01:03:40;;;;;;;11.05;6.68;;;;;;;20.89;55.74;93006.56;2071397;69;20156;-71
2022/07/16 01:06:08;;;;;;;11.85;6.72;;;;;;;20.92;55.36;93005.94;2071393;69;20176;-70
2022/07/16 01:08:35;;;;;;;9.02;6.30;;;;;;;20.97;55.06;93009.66;2071294;69;20148;-70
2022/07/16 01:11:04;;;;;;;8.73;6.63;;;;;;;21.09;54.11;93010.00;2071532;69;20151;-70
2022/07/16 01:13:30;;;;;;;11.63;6.65;;;;;;;20.97;54.50;93001.06;2071365;69;20152;-70
2022/07/16 01:15:55;;;;;;;10.88;7.40;;;;;;;20.91;55.21;93003.78;2071402;69;20511;-70
2022/07/16 01:18:21;;;;;;;9.45;6.97;;;;;;;20.81;55.28;93004.22;2068078;69;20160;-72
2022/07/16 01:20:47;;;;;;;8.15;6.40;;;;;;;20.94;54.28;93008.16;2071420;69;20144;-72
2022/07/16 01:23:19;;;;;;;11.35;7.35;;;;;;;20.91;54.60;93015.22;2067935;69;20641;-71
2022/07/16 01:25:46;;;;;;;9.60;7.45;;;;;;;20.79;55.28;93012.75;2068029;69;20154;-71
2022/07/16 01:28:12;;;;;;;14.18;6.45;;;;;;;20.62;55.64;93014.44;2071562;69;20633;-71
2022/07/16 01:30:38;;;;;;;10.57;6.85;;;;;;;20.62;55.75;93010.81;2071374;69;20136;-74
2022/07/16 01:33:22;;;;;;;15.90;7.47;;;;;;;20.47;56.21;93010.41;2067864;69;20140;-72
2022/07/16 01:35:49;;;;;;;13.05;7.03;;;;;;;20.40;56.58;93013.75;2071079;69;20152;-72
2022/07/16 01:38:15;;;;;;;11.40;6.70;;;;;;;20.49;55.96;93019.06;2071108;69;20159;-72
2022/07/16 01:40:41;;;;;;;14.10;6.70;;;;;;;20.58;55.00;93019.31;2071415;69;20514;-71
2022/07/16 01:43:14;;;;;;;11.52;7.93;;;;;;;20.63;55.37;93020.88;2071631;69;20236;-72
2022/07/16 01:45:40;;;;;;;18.70;8.18;;;;;;;20.30;56.10;93023.50;2071392;69;20136;-75
2022/07/16 01:48:05;;;;;;;13.40;8.02;;;;;;;20.30;56.92;93023.50;2071392;69;20155;-72
2022/07/16 01:50:31;;;;;;;15.98;8.30;;;;;;;20.16;57.29;93016.59;2071209;69;20148;-72
2022/07/16 01:52:57;;;;;;;11.93;7.28;;;;;;;20.25;57.03;93012.59;2071232;69;20226;-72
2022/07/16 01:55:22;;;;;;;10.98;7.65;;;;;;;20.27;56.90;93015.53;2071297;69;20217;-72
2022/07/16 01:57:48;;;;;;;10.70;7.38;;;;;;;20.21;56.51;93013.22;2068109;69;20163;-70
2022/07/16 02:00:14;;;;;;;11.90;7.68;;;;;;;20.19;56.93;93021.00;2071413;69;20637;-72
2022/07/16 02:02:39;;;;;;;11.35;7.40;;;;;;;20.08;57.66;93019.25;2071525;69;20511;-73
2022/07/16 02:05:05;;;;;;;12.23;7.18;;;;;;;20.29;56.00;93027.00;2071200;69;20164;-73
2022/07/16 02:07:31;;;;;;;11.45;7.60;;;;;;;19.95;57.63;93032.41;2067902;69;20630;-70
2022/07/16 02:09:56;;;;;;;10.75;7.40;;;;;;;19.97;57.23;93027.47;2071813;69;20161;-69
2022/07/16 02:12:22;;;;;;;14.10;8.32;;;;;;;19.92;57.15;93023.03;2068394;69;20175;-70
2022/07/16 02:14:48;;;;;;;12.77;8.07;;;;;;;19.78;58.20;93026.16;2071633;69;20663;-72
2022/07/16 02:17:13;;;;;;;10.30;7.55;;;;;;;19.88;57.18;93034.34;2071758;69;20148;-71
2022/07/16 02:19:39;;;;;;;11.57;7.32;;;;;;;19.78;57.85;93026.16;2071787;69;20557;-70
2022/07/16 02:22:06;;;;;;;14.98;7.82;;;;;;;19.87;57.26;93037.88;2071726;69;20243;-71
2022/07/16 02:24:32;;;;;;;11.15;7.72;;;;;;;19.86;56.07;93031.41;2071889;69;20595;-71
2022/07/16 02:26:59;;;;;;;11.00;7.18;;;;;;;19.72;58.64;93031.69;2071989;69;20148;-72
2022/07/16 02:29:25;;;;;;;9.70;7.80;;;;;;;19.32;59.73;93038.91;2071747;69;20151;-71
2022/07/16 02:31:50;;;;;;;12.88;7.85;;;;;;;19.63;58.44;93038.53;2068423;69;20156;-71
2022/07/16 02:34:16;;;;;;;12.93;7.20;;;;;;;19.73;57.45;93038.88;2071926;69;20235;-71
2022/07/16 02:36:41;;;;;;;12.27;7.85;;;;;;;19.50;58.28;93031.66;2071797;69;20650;-72
2022/07/16 02:39:07;;;;;;;13.32;8.25;;;;;;;19.57;57.86;93037.59;2071870;69;20240;-71
2022/07/16 02:41:33;;;;;;;13.70;7.90;;;;;;;19.66;56.50;93039.34;2071911;69;20263;-70
2022/07/16 02:43:58;;;;;;;11.05;7.80;;;;;;;19.51;58.15;93038.09;2071666;69;20251;-71
2022/07/16 02:46:24;;;;;;;9.60;7.47;;;;;;;19.44;58.73;93042.16;2071642;69;20587;-70
2022/07/16 02:48:49;;;;;;;13.25;7.78;;;;;;;19.57;58.03;93044.03;2071802;69;20145;-69
2022/07/16 02:51:15;;;;;;;14.30;7.78;;;;;;;19.51;58.50;93050.25;2071675;69;20163;-71
2022/07/16 02:53:41;;;;;;;13.65;7.90;;;;;;;19.44;58.39;93045.75;2071806;69;20155;-71
2022/07/16 02:56:07;;;;;;;14.00;8.38;;;;;;;19.37;59.06;93060.47;2072029;69;20148;-71
2022/07/16 02:58:32;;;;;;;13.75;8.02;;;;;;;19.34;59.29;93053.25;2071636;69;20221;-71
2022/07/16 03:00:58;;;;;;;14.75;8.38;;;;;;;19.28;59.63;93057.34;2071808;69;20997;-71
2022/07/16 03:03:23;;;;;;;12.77;8.05;;;;;;;19.42;58.83;93059.94;2068119;69;20152;-73
2022/07/16 03:05:49;;;;;;;12.88;7.80;;;;;;;19.34;59.00;93056.09;2071746;69;20525;-71
2022/07/16 03:08:15;;;;;;;13.75;8.05;;;;;;;19.42;58.45;93059.94;2068388;69;20152;-70
2022/07/16 03:10:40;;;;;;;12.15;7.72;;;;;;;19.43;57.80;93061.44;2072003;69;20522;-70
2022/07/16 03:13:06;;;;;;;10.38;7.85;;;;;;;19.12;59.44;93065.34;2071810;69;20160;-70
2022/07/16 03:15:32;;;;;;;9.55;7.63;;;;;;;19.18;59.87;93064.84;2067703;69;20179;-70
2022/07/16 03:17:57;;;;;;;11.45;7.93;;;;;;;19.20;59.60;93062.78;2068500;69;20144;-70
2022/07/16 03:20:23;;;;;;;13.10;7.75;;;;;;;19.25;58.66;93061.53;2068360;69;20164;-70
2022/07/16 03:22:49;;;;;;;11.10;8.20;;;;;;;19.20;58.96;93067.78;2068379;69;20144;-71
2022/07/16 03:25:16;;;;;;;11.75;7.95;;;;;;;18.99;60.16;93067.03;2067873;69;20156;-73
2022/07/16 03:27:41;;;;;;;10.82;7.70;;;;;;;19.10;59.12;93078.81;2068552;69;20698;-73
2022/07/16 03:30:07;;;;;;;11.77;7.97;;;;;;;19.05;59.41;93069.38;2068470;69;20232;-75
2022/07/16 03:32:34;;;;;;;12.57;8.13;;;;;;;19.06;59.34;93073.72;2068631;69;20259;-74
2022/07/16 03:35:03;;;;;;;12.80;7.97;;;;;;;19.08;59.05;93076.63;2067856;69;20137;-73
2022/07/16 03:37:29;;;;;;;9.63;7.57;;;;;;;19.10;58.67;93084.53;2068490;69;20152;-73
2022/07/16 03:39:56;;;;;;;8.98;7.53;;;;;;;18.98;60.18;93081.97;2067898;69;20223;-72
2022/07/16 03:42:21;;;;;;;11.10;7.70;;;;;;;18.94;60.25;93070.41;2068231;69;20161;-72
2022/07/16 03:44:47;;;;;;;12.07;7.63;;;;;;;19.16;57.62;93076.19;2068498;69;20137;-72
2022/07/16 03:47:13;;;;;;;14.07;7.72;;;;;;;19.24;58.08;93079.31;2067959;69;20238;-72
2022/07/16 03:49:38;;;;;;;12.52;8.00;;;;;;;19.11;58.42;93083.16;2068494;69;20141;-72
2022/07/16 03:52:04;;;;;;;10.07;8.05;;;;;;;19.01;59.28;93081.41;2068491;69;20145;-72
2022/07/16 03:54:30;;;;;;;10.98;7.88;;;;;;;19.03;59.31;93080.72;2068612;69;20164;-71
2022/07/16 03:56:55;;;;;;;12.10;8.23;;;;;;;18.81;60.33;93082.78;2068566;69;20160;-74
2022/07/16 03:59:21;;;;;;;9.93;7.90;;;;;;;18.94;59.40;93087.53;2068476;69;20164;-75
2022/07/16 04:01:47;;;;;;;10.70;8.05;;;;;;;18.93;58.98;93083.97;2068479;69;20156;-73
2022/07/16 04:04:13;;;;;;;9.68;7.35;;;;;;;18.92;59.19;93093.91;2067890;69;20180;-74
2022/07/16 04:06:38;;;;;;;13.70;8.27;;;;;;;18.88;59.82;93093.03;2068365;69;20176;-73
2022/07/16 04:09:04;;;;;;;13.80;8.27;;;;;;;18.66;60.41;93096.50;2068386;69;20156;-72
2022/07/16 04:11:30;;;;;;;15.05;9.20;;;;;;;18.48;60.64;93093.69;2068398;69;20169;-72
2022/07/16 04:13:56;;;;;;;10.23;8.20;;;;;;;18.74;59.94;93096.81;2068735;69;20167;-72
2022/07/16 04:16:22;;;;;;;13.05;8.73;;;;;;;18.54;60.88;93108.16;2071950;69;20195;-72
2022/07/16 04:18:48;;;;;;;13.10;8.73;;;;;;;18.65;60.22;93094.31;2071819;69;20698;-72
2022/07/16 04:21:14;;;;;;;13.70;7.93;;;;;;;18.55;61.18;93108.88;2068351;69;20158;-72
2022/07/16 04:23:39;;;;;;;10.60;8.32;;;;;;;18.66;60.70;93112.88;2068400;69;20172;-72
2022/07/16 04:26:05;;;;;;;12.35;8.18;;;;;;;18.65;60.70;93109.28;2071774;69;20182;-72
2022/07/16 04:28:31;;;;;;;13.05;8.32;;;;;;;18.72;59.58;93101.72;2071934;69;20183;-72
2022/07/16 04:30:56;;;;;;;14.52;8.40;;;;;;;18.55;60.32;93111.75;2071703;69;20140;-72
2022/07/16 04:33:22;;;;;;;13.75;8.68;;;;;;;18.58;60.21;93110.44;2071714;69;20555;-72
2022/07/16 04:35:48;;;;;;;12.35;8.77;;;;;;;18.50;61.58;93093.75;2071704;69;20259;-73
2022/07/16 04:38:15;;;;;;;10.88;7.95;;;;;;;18.60;60.50;93107.69;2071647;69;20213;-73
2022/07/16 04:40:40;;;;;;;11.45;8.02;;;;;;;18.71;60.68;93103.84;2071755;69;20169;-72
2022/07/16 04:43:06;;;;;;;12.30;8.32;;;;;;;18.60;61.23;93104.06;2071725;69;20144;-74
2022/07/16 04:45:32;;;;;;;12.32;8.45;;;;;;;18.59;61.27;93111.91;2068376;69;20147;-72
2022/07/16 04:47:57;;;;;;;12.70;8.70;;;;;;;18.58;61.34;93109.72;2071810;69;20156;-72
2022/07/16 04:50:23;;;;;;;10.32;8.32;;;;;;;18.68;60.46;93116.50;2071726;69;20258;-72
2022/07/16 04:52:48;;;;;;;9.93;8.52;;;;;;;18.63;60.88;93111.31;2071592;69;20144;-72
2022/07/16 04:55:14;;;;;;;11.70;8.90;;;;;;;18.65;60.94;93102.84;2071717;69;20201;-72
2022/07/16 04:57:40;;;;;;;13.27;8.60;;;;;;;18.61;61.11;93103.44;2071695;69;20522;-72
2022/07/16 05:00:06;;;;;;;12.25;9.00;;;;;;;18.67;61.02;93108.63;2071634;69;20151;-72
2022/07/16 05:05:19;;;;;;;13.88;9.00;;;;;;;18.69;60.55;93117.28;2068941;69;20323;-73
2022/07/16 05:07:49;;;;;;;13.07;8.52;;;;;;;18.61;61.23;93117.69;2071517;69;20320;-72
2022/07/16 05:10:15;;;;;;;15.15;8.98;;;;;;;18.45;61.38;93119.91;2071795;69;20148;-73
2022/07/16 05:12:41;;;;;;;11.55;8.52;;;;;;;18.56;61.54;93124.63;2068299;69;20617;-72
2022/07/16 05:15:07;;;;;;;13.93;8.82;;;;;;;18.64;61.64;93115.63;2071686;69;20650;-72
2022/07/16 05:17:33;;;;;;;14.70;8.75;;;;;;;18.60;61.02;93121.19;2071642;69;20163;-71
2022/07/16 05:19:59;;;;;;;15.57;9.18;;;;;;;18.69;60.70;93114.41;2071642;69;20146;-72
2022/07/16 05:22:24;;;;;;;11.50;9.00;;;;;;;18.68;60.50;93116.50;2071554;69;20154;-72
2022/07/16 05:24:50;;;;;;;12.50;9.05;;;;;;;18.75;61.01;93114.66;2068443;69;20159;-73
2022/07/16 05:27:16;;;;;;;13.48;8.98;;;;;;;18.80;60.69;93113.44;2071714;69;20190;-72
2022/07/16 05:29:42;;;;;;;11.82;8.38;;;;;;;18.65;61.70;93119.97;2071629;69;20615;-71
2022/07/16 05:32:07;;;;;;;11.73;8.77;;;;;;;18.67;61.88;93117.91;2071628;69;20140;-71
2022/07/16 05:34:33;;;;;;;11.75;8.68;;;;;;;18.71;61.95;93117.38;2071597;69;20220;-71
2022/07/16 05:36:58;;;;;;;16.02;9.88;;;;;;;17.75;64.99;93125.00;2071500;69;20148;-71
2022/07/16 05:39:24;;;;;;;13.23;9.68;;;;;;;18.37;63.26;93120.34;2068232;69;20156;-72
2022/07/16 05:41:50;;;;;;;12.43;9.13;;;;;;;18.49;62.50;93128.63;2072128;69;20246;-72
2022/07/16 05:44:16;;;;;;;13.60;9.30;;;;;;;18.58;61.59;93121.84;2068811;69;20151;-72
2022/07/16 05:46:42;;;;;;;15.18;9.88;;;;;;;18.60;62.05;93121.19;2072058;69;20152;-73
2022/07/16 05:49:08;;;;;;;14.00;9.90;;;;;;;18.52;62.47;93118.78;2072048;69;20672;-74
2022/07/16 05:51:33;;;;;;;12.07;9.20;;;;;;;18.62;61.93;93121.28;2072120;69;20180;-73
2022/07/16 05:53:59;;;;;;;15.27;9.60;;;;;;;18.81;60.04;93128.41;2072289;69;20140;-73
2022/07/16 05:56:24;;;;;;;11.90;9.20;;;;;;;18.74;61.32;93130.31;2072176;69;20239;-73
2022/07/16 05:58:50;;;;;;;13.25;9.48;;;;;;;18.75;62.40;93132.50;2072124;69;20507;-74
2022/07/16 06:01:15;;;;;;;12.85;9.18;;;;;;;18.73;61.44;93132.41;2068675;69;20148;-75
2022/07/16 06:03:41;;;;;;;14.15;10.10;;;;;;;18.79;61.65;93129.09;2071925;69;20183;-71
2022/07/16 06:06:07;;;;;;;13.10;9.43;;;;;;;18.76;62.04;93133.22;2072157;69;20128;-73
2022/07/16 06:08:32;;;;;;;14.07;9.63;;;;;;;18.90;62.04;93128.06;2068558;69;20587;-73
2022/07/16 06:10:59;;;;;;;13.82;9.95;;;;;;;18.89;61.51;93120.88;2072059;69;20671;-73
2022/07/16 06:13:25;;;;;;;13.75;9.70;;;;;;;19.00;61.08;93119.84;2072061;69;20223;-72
2022/07/16 06:15:51;;;;;;;11.77;9.10;;;;;;;18.94;63.39;93113.22;2072023;69;20148;-73
2022/07/16 06:18:16;;;;;;;12.15;9.00;;;;;;;19.04;62.25;93125.72;2072045;69;20591;-73
2022/07/16 06:20:42;;;;;;;11.80;9.48;;;;;;;18.97;62.54;93115.47;2071979;69;20148;-72
2022/07/16 06:23:08;;;;;;;12.07;9.15;;;;;;;19.11;61.48;93115.25;2071880;69;20529;-73
2022/07/16 06:25:33;;;;;;;14.48;9.02;;;;;;;19.13;62.66;93118.19;2072009;69;20156;-73
2022/07/16 06:27:59;;;;;;;11.38;9.10;;;;;;;19.23;61.41;93114.94;2072245;69;20139;-73
2022/07/16 06:30:25;;;;;;;11.60;9.38;;;;;;;19.31;61.87;93115.25;2072001;69;20539;-73
2022/07/16 06:32:50;;;;;;;15.63;8.60;;;;;;;19.45;62.54;93118.59;2072011;69;20588;-72
2022/07/16 06:35:16;;;;;;;11.20;8.90;;;;;;;19.46;62.08;93120.03;2071998;69;20590;-74
2022/07/16 06:37:42;;;;;;;12.65;8.60;;;;;;;19.67;61.05;93115.06;2071862;69;20495;-72
2022/07/16 06:40:09;;;;;;;10.68;8.25;;;;;;;19.77;59.26;93116.13;2072055;69;20541;-73
2022/07/16 06:42:36;;;;;;;9.98;8.63;;;;;;;19.89;60.32;93112.22;2071974;69;20136;-72
2022/07/16 06:45:02;;;;;;;11.00;8.75;;;;;;;20.02;60.37;93111.19;2072029;69;20147;-72
2022/07/16 06:47:27;;;;;;;12.50;7.97;;;;;;;20.11;59.12;93117.91;2072053;69;20152;-72
2022/07/16 06:49:53;;;;;;;12.88;8.77;;;;;;;20.19;60.08;93107.47;2072003;69;20566;-73
2022/07/16 06:52:19;;;;;;;11.43;8.30;;;;;;;20.40;56.97;93105.97;2071703;69;20168;-73
2022/07/16 06:54:45;;;;;;;14.45;8.73;;;;;;;20.47;57.66;93104.03;2071944;69;20155;-73
2022/07/16 06:57:10;;;;;;;10.88;8.43;;;;;;;20.54;58.35;93106.44;2072024;69;20231;-74
2022/07/16 06:59:36;;;;;;;12.07;8.93;;;;;;;20.47;57.32;93104.78;2071931;69;20172;-74
2022/07/16 07:02:02;;;;;;;10.20;8.48;;;;;;;20.74;55.64;93102.72;2071916;69;20239;-73
2022/07/16 07:04:28;;;;;;;12.65;8.90;;;;;;;20.76;59.26;93099.94;2071891;69;20148;-73
2022/07/16 07:06:54;;;;;;;10.48;8.13;;;;;;;20.94;56.59;93106.19;2071800;69;20248;-73
2022/07/16 07:09:19;;;;;;;13.25;8.52;;;;;;;21.07;56.56;93104.38;2068594;69;20144;-71
2022/07/16 07:11:45;;;;;;;13.05;8.27;;;;;;;21.06;57.14;93109.38;2071940;69;20625;-72
2022/07/16 07:14:11;;;;;;;11.05;8.10;;;;;;;21.13;55.58;93109.56;2071965;69;20166;-70
2022/07/16 07:16:37;;;;;;;9.35;8.40;;;;;;;21.28;56.21;93103.53;2071940;69;20148;-71
2022/07/16 07:19:03;;;;;;;13.52;9.18;;;;;;;21.27;54.19;93104.22;2071921;69;20154;-72
2022/07/16 07:21:29;;;;;;;11.82;8.70;;;;;;;21.41;54.92;93101.03;2072003;69;20190;-72
2022/07/16 07:23:54;;;;;;;12.20;9.10;;;;;;;21.28;54.99;93102.81;2071888;69;20149;-72
2022/07/16 07:26:21;;;;;;;13.00;9.23;;;;;;;21.38;54.03;93097.38;2071890;69;20149;-72
2022/07/16 07:28:46;;;;;;;14.38;9.30;;;;;;;21.47;54.30;93099.06;2071824;69;20148;-73
2022/07/16 07:31:12;;;;;;;10.73;9.40;;;;;;;21.03;55.70;93089.97;2071880;69;20139;-72
2022/07/16 07:33:38;;;;;;;12.65;9.07;;;;;;;21.45;54.10;93087.56;2071850;69;20125;-72
2022/07/16 07:36:06;;;;;;;14.55;8.85;;;;;;;21.66;54.71;93088.09;2071897;69;20618;-73
2022/07/16 07:38:32;;;;;;;10.98;8.77;;;;;;;21.75;55.22;93092.63;2071752;69;20129;-72
2022/07/16 07:40:58;;;;;;;12.27;8.18;;;;;;;21.48;52.80;93083.34;2072003;69;20232;-73
2022/07/16 07:43:24;;;;;;;13.70;7.68;;;;;;;21.53;51.88;93081.31;2071913;69;20156;-72
2022/07/16 07:45:50;;;;;;;10.00;7.65;;;;;;;21.53;51.55;93078.44;2071861;69;20151;-73
2022/07/16 07:48:16;;;;;;;9.30;8.05;;;;;;;21.70;52.04;93077.44;2071941;69;20510;-73
2022/07/16 07:50:42;;;;;;;10.48;7.18;;;;;;;21.78;51.70;93074.81;2071896;69;20172;-72
2022/07/16 07:53:08;;;;;;;14.73;7.97;;;;;;;22.10;51.82;93079.88;2071714;69;20148;-75
2022/07/16 07:55:34;;;;;;;9.77;6.68;;;;;;;22.24;51.35;93082.38;2071851;69;20608;-71
2022/07/16 07:57:59;;;;;;;12.18;7.63;;;;;;;22.33;51.12;93079.00;2071851;69;20164;-75
2022/07/16 08:00:25;;;;;;;10.48;7.20;;;;;;;22.48;51.26;93076.47;2071882;69;20599;-76
2022/07/16 08:02:51;;;;;;;13.00;7.78;;;;;;;22.73;51.91;93077.75;2068436;69;20237;-76
2022/07/16 08:05:17;;;;;;;11.52;7.07;;;;;;;22.97;50.42;93078.28;2071682;69;20156;-75
2022/07/16 08:07:44;;;;;;;12.65;7.30;;;;;;;22.97;50.95;93075.41;2071759;69;20143;-73
2022/07/16 08:10:11;;;;;;;10.82;6.85;;;;;;;23.10;49.52;93073.50;2071928;69;20137;-73
2022/07/16 08:12:37;;;;;;;9.05;6.65;;;;;;;23.60;49.68;93073.03;2071788;69;20159;-71
2022/07/16 08:15:04;;;;;;;11.05;7.25;;;;;;;23.55;46.33;93072.22;2071851;69;20164;-72
2022/07/16 08:17:30;;;;;;;9.13;6.53;;;;;;;24.04;47.19;93064.44;2071840;69;20144;-72
2022/07/16 08:19:56;;;;;;;8.93;6.57;;;;;;;24.26;45.83;93066.22;2072025;69;20182;-71
2022/07/16 08:22:22;;;;;;;8.00;6.30;;;;;;;24.79;46.17;93067.75;2071696;69;20239;-72
2022/07/16 08:27:32;;;;;;;9.57;6.38;;;;;;;25.40;44.21;93061.31;2071725;69;20125;-71
2022/07/16 08:29:57;;;;;;;9.27;6.38;;;;;;;25.79;45.19;93060.31;2071921;69;20144;-72
2022/07/16 08:32:23;;;;;;;9.20;6.25;;;;;;;26.01;44.66;93056.91;2071886;69;20156;-71
2022/07/16 08:34:50;;;;;;;10.65;6.70;;;;;;;25.99;41.77;93048.25;2071770;69;20144;-72
2022/07/16 08:37:29;;;;;;;12.27;6.85;;;;;;;26.18;42.48;93051.28;2071725;69;20152;-73
2022/07/16 08:39:55;;;;;;;10.55;6.45;;;;;;;26.07;40.82;93045.44;2071747;69;20187;-75
2022/07/16 08:42:22;;;;;;;9.55;6.38;;;;;;;26.52;41.85;93051.53;2071748;69;20180;-72
2022/07/16 08:44:49;;;;;;;11.15;6.88;;;;;;;26.20;41.28;93042.63;2071863;69;20631;-72
2022/07/16 08:47:15;;;;;;;8.65;6.45;;;;;;;26.58;41.49;93051.59;2071699;69;20537;-71
2022/07/16 08:49:44;;;;;;;7.18;5.97;;;;;;;27.24;40.29;93049.78;2071763;69;20186;-74
2022/07/16 08:52:11;;;;;;;8.02;6.07;;;;;;;27.43;40.21;93050.56;2071664;69;20144;-71
2022/07/16 08:54:38;;;;;;;12.02;5.93;;;;;;;27.49;39.27;93047.72;2071784;69;20603;-71
2022/07/16 08:57:04;;;;;;;11.13;6.40;;;;;;;27.88;38.82;93041.31;2071679;69;20148;-71
2022/07/16 08:59:30;;;;;;;12.48;5.82;;;;;;;28.05;37.93;93040.59;2071639;69;20154;-71
2022/07/16 09:01:56;;;;;;;7.60;5.93;;;;;;;27.62;39.19;93040.50;2071753;69;20144;-70
2022/07/16 09:04:22;;;;;;;7.93;5.57;;;;;;;28.03;38.24;93039.88;2071079;69;20155;-70
2022/07/16 09:06:49;;;;;;;7.85;5.60;;;;;;;28.47;38.86;93038.44;2071381;69;20156;-72
2022/07/16 09:09:14;;;;;;;8.05;5.57;;;;;;;29.03;37.33;93023.13;2070830;69;20195;-73
2022/07/16 09:11:40;;;;;;;9.30;5.70;;;;;;;29.24;38.72;93020.91;2071622;69;20214;-74
2022/07/16 09:14:15;;;;;;;6.95;5.30;;;;;;;28.83;35.94;93023.91;2071409;69;20171;-72
2022/07/16 09:16:42;;;;;;;8.45;5.78;;;;;;;29.14;36.83;93029.63;2071481;69;20212;-75
2022/07/16 09:19:08;;;;;;;6.35;5.25;;;;;;;29.29;36.33;93021.59;2071660;69;20651;-73
2022/07/16 09:21:35;;;;;;;6.85;5.22;;;;;;;29.29;36.29;93018.69;2072096;69;20785;-72
2022/07/16 09:24:01;;;;;;;7.88;5.45;;;;;;;29.87;35.40;93014.03;2072782;69;20239;-72
2022/07/16 09:26:28;;;;;;;7.68;5.68;;;;;;;28.78;35.28;93010.16;2068282;69;20148;-75
2022/07/16 09:28:55;;;;;;;8.07;5.47;;;;;;;30.03;34.07;93008.13;2071102;69;20730;-77
2022/07/16 09:31:39;;;;;;;6.22;5.32;;;;;;;30.45;36.13;93012.16;2071403;69;20141;-72
2022/07/16 09:34:15;;;;;;;7.40;5.13;;;;;;;30.45;34.70;93006.34;2071331;69;20209;-72
2022/07/16 09:37:02;;;;;;;7.07;4.93;;;;;;;30.88;32.85;92997.97;2071048;69;20144;-72
2022/07/16 09:39:30;;;;;;;8.85;5.03;;;;;;;30.39;35.55;93003.50;2071163;69;20156;-73
2022/07/16 09:41:56;;;;;;;7.75;5.47;;;;;;;30.21;33.61;92998.56;2071363;69;20584;-73
2022/07/16 09:44:30;;;;;;;7.55;5.03;;;;;;;30.04;33.61;93003.03;2070378;69;20760;-71
2022/07/16 09:47:09;;;;;;;10.07;5.22;;;;;;;30.17;34.59;92994.97;2070096;69;20156;-72
2022/07/16 09:49:40;;;;;;;6.53;4.82;;;;;;;30.32;33.78;92987.59;2071814;69;20147;-74
2022/07/16 09:52:30;;;;;;;10.68;5.10;;;;;;;31.28;34.21;92993.16;2071445;69;20191;-74
2022/07/16 09:54:56;;;;;;;5.45;4.90;;;;;;;31.91;33.59;92991.59;2071405;69;20202;-72
2022/07/16 09:57:25;;;;;;;6.97;4.80;;;;;;;32.15;33.29;92987.56;2071478;69;20179;-72
2022/07/16 09:59:52;;;;;;;10.65;5.05;;;;;;;32.28;32.65;92993.94;2071533;69;20233;-72
2022/07/16 10:02:18;;;;;;;6.80;4.60;;;;;;;31.53;31.12;92984.13;2068189;69;20144;-72
2022/07/16 10:04:43;;;;;;;7.85;5.13;;;;;;;31.36;31.71;92984.31;2071635;69;20174;-72
2022/07/16 10:07:09;;;;;;;6.55;4.88;;;;;;;31.06;32.24;92982.47;2071459;69;20196;-76
2022/07/16 10:09:36;;;;;;;9.02;4.50;;;;;;;32.03;31.35;92973.94;2071664;69;20287;-76
2022/07/16 10:12:06;;;;;;;6.85;4.40;;;;;;;32.71;30.71;92984.47;2071540;69;20129;-75
2022/07/16 10:14:37;;;;;;;6.40;4.55;;;;;;;33.44;30.00;92982.34;2071516;69;20156;-72
2022/07/16 10:17:30;;;;;;;5.60;4.68;;;;;;;32.62;29.86;92981.72;2071511;69;20210;-73
2022/07/16 10:19:57;;;;;;;6.82;4.53;;;;;;;32.60;30.25;92984.66;2071625;69;20205;-73
2022/07/16 10:22:34;;;;;;;7.57;4.20;;;;;;;32.88;29.54;92971.75;2068026;69;20588;-73
2022/07/16 10:25:00;;;;;;;9.35;4.18;;;;;;;33.50;29.91;92976.41;2071513;69;20205;-73
2022/07/16 10:27:35;;;;;;;9.95;4.13;;;;;;;34.12;28.69;92962.59;2071514;69;20235;-73
2022/07/16 10:30:25;;;;;;;7.72;4.15;;;;;;;34.48;29.04;92969.03;2072046;69;20247;-73
2022/07/16 10:33:00;;;;;;;6.93;4.47;;;;;;;35.17;27.73;92951.88;2068722;69;20151;-75
2022/07/16 10:35:33;;;;;;;6.43;3.95;;;;;;;35.72;27.98;92961.28;2072004;69;20167;-76
2022/07/16 10:38:20;;;;;;;7.13;3.95;;;;;;;34.84;27.52;92961.53;2071903;69;20144;-73
2022/07/16 10:40:47;;;;;;;6.85;3.78;;;;;;;34.80;27.04;92958.69;2071943;69;20140;-77
2022/07/16 10:43:18;;;;;;;7.30;3.65;;;;;;;34.52;27.13;92953.63;2071920;69;20137;-73
2022/07/16 10:45:54;;;;;;;6.13;3.92;;;;;;;35.60;27.32;92947.72;2071905;69;20195;-73
2022/07/16 10:48:28;;;;;;;8.13;3.70;;;;;;;36.45;24.94;92949.50;2071912;69;20139;-74
2022/07/16 10:51:17;;;;;;;6.90;3.88;;;;;;;36.93;25.27;92943.47;2071936;69;20168;-74
2022/07/16 10:54:06;;;;;;;6.15;3.55;;;;;;;37.42;25.27;92935.84;2071255;69;20269;-71
2022/07/16 10:56:51;;;;;;;5.15;3.45;;;;;;;37.49;24.34;92940.00;2071811;69;20132;-75
2022/07/16 10:59:26;;;;;;;4.32;3.17;;;;;;;38.78;23.19;92935.63;2068511;69;20227;-77
2022/07/16 11:01:54;;;;;;;4.38;3.25;;;;;;;37.52;22.71;92935.47;2068505;69;20594;-74
2022/07/16 11:04:30;;;;;;;6.25;3.05;;;;;;;39.42;22.85;92934.31;2068572;69;20182;-73
2022/07/16 11:06:56;;;;;;;3.85;2.90;;;;;;;41.05;19.83;92938.28;2071642;69;20223;-71
2022/07/16 11:09:32;;;;;;;8.40;3.10;;;;;;;43.45;19.18;92947.13;2071917;69;20150;-74
2022/07/16 11:12:07;;;;;;;4.45;2.80;;;;;;;43.61;16.92;92940.19;2071816;69;20159;-71
2022/07/16 11:14:33;;;;;;;6.70;2.88;;;;;;;42.93;16.56;92939.81;2071589;69;20230;-73
2022/07/16 11:16:58;;;;;;;6.43;2.90;;;;;;;44.44;16.41;92939.44;2071736;69;20156;-72
2022/07/16 11:19:27;;;;;;;6.88;2.97;;;;;;;43.63;16.15;92943.03;2071799;69;20736;-75
2022/07/16 11:21:58;;;;;;;5.93;2.70;;;;;;;44.33;15.44;92942.34;2068255;69;20255;-73
2022/07/16 11:24:25;;;;;;;5.63;2.83;;;;;;;44.62;16.02;92943.47;2071863;69;20151;-74
2022/07/16 11:26:51;;;;;;;6.43;2.60;;;;;;;48.85;13.32;92946.53;2071888;69;20162;-73
2022/07/16 11:29:20;;;;;;;4.88;2.65;;;;;;;48.81;13.00;92949.16;2071442;69;20152;-71
2022/07/16 11:31:46;;;;;;;6.18;2.38;;;;;;;48.30;13.01;92953.28;2071866;69;20156;-72
2022/07/16 11:34:12;;;;;;;5.00;2.50;;;;;;;45.86;14.24;92934.34;2071809;69;20152;-72